sensor_id;sensor_type;location;lat;lon;timestamp;P1;durP1;ratioP1;P2;durP2;ratioP2
12846;SDS011;6492;48.128;8.320;2022-12-10T00:02:56;29.97;;;16.93;;
12846;SDS011;6492;48.128;8.320;2022-12-10T00:06:58;32.60;;;16.93;;
12846;SDS011;6492;48.128;8.320;2022-12-10T00:11:01;38.30;;;18.63;;
12846;SDS011;6492;48.128;8.320;2022-12-10T00:15:04;38.00;;;19.47;;
12846;SDS011;6492;48.128;8.320;2022-12-10T00:19:08;38.70;;;18.33;;
12846;SDS011;6492;48.128;8.320;2022-12-10T00:27:43;36.70;;;17.80;;
12846;SDS011;6492;48.128;8.320;2022-12-10T00:31:44;34.37;;;18.23;;
12846;SDS011;6492;48.128;8.320;2022-12-10T00:35:48;34.83;;;18.17;;
12846;SDS011;6492;48.128;8.320;2022-12-10T00:39:49;39.13;;;20.67;;
12846;SDS011;6492;48.128;8.320;2022-12-10T00:43:51;37.50;;;19.03;;
12846;SDS011;6492;48.128;8.320;2022-12-10T00:47:53;38.53;;;20.13;;
12846;SDS011;6492;48.128;8.320;2022-12-10T00:51:56;35.90;;;19.20;;
12846;SDS011;6492;48.128;8.320;2022-12-10T00:55:58;45.13;;;20.53;;
12846;SDS011;6492;48.128;8.320;2022-12-10T01:00:00;40.17;;;19.57;;
12846;SDS011;6492;48.128;8.320;2022-12-10T01:04:03;39.73;;;19.60;;
12846;SDS011;6492;48.128;8.320;2022-12-10T01:08:07;41.27;;;19.67;;
12846;SDS011;6492;48.128;8.320;2022-12-10T01:12:09;33.80;;;17.63;;
12846;SDS011;6492;48.128;8.320;2022-12-10T01:16:12;32.30;;;17.57;;
12846;SDS011;6492;48.128;8.320;2022-12-10T01:20:15;36.23;;;17.73;;
12846;SDS011;6492;48.128;8.320;2022-12-10T01:24:20;31.77;;;17.33;;
12846;SDS011;6492;48.128;8.320;2022-12-10T01:28:23;33.57;;;18.33;;
12846;SDS011;6492;48.128;8.320;2022-12-10T01:32:25;40.73;;;20.13;;
12846;SDS011;6492;48.128;8.320;2022-12-10T01:36:27;38.00;;;18.83;;
12846;SDS011;6492;48.128;8.320;2022-12-10T01:40:36;42.00;;;19.53;;
12846;SDS011;6492;48.128;8.320;2022-12-10T01:44:56;40.57;;;18.90;;
12846;SDS011;6492;48.128;8.320;2022-12-10T01:49:05;39.87;;;19.83;;
12846;SDS011;6492;48.128;8.320;2022-12-10T01:53:09;38.90;;;18.87;;
12846;SDS011;6492;48.128;8.320;2022-12-10T01:57:13;38.13;;;18.63;;
12846;SDS011;6492;48.128;8.320;2022-12-10T02:01:20;43.63;;;19.13;;
12846;SDS011;6492;48.128;8.320;2022-12-10T02:05:29;40.23;;;17.63;;
12846;SDS011;6492;48.128;8.320;2022-12-10T02:09:38;41.00;;;20.40;;
12846;SDS011;6492;48.128;8.320;2022-12-10T02:13:47;38.63;;;20.50;;
12846;SDS011;6492;48.128;8.320;2022-12-10T02:17:57;37.57;;;18.83;;
12846;SDS011;6492;48.128;8.320;2022-12-10T02:22:02;37.73;;;18.90;;
12846;SDS011;6492;48.128;8.320;2022-12-10T02:26:06;38.30;;;18.73;;
12846;SDS011;6492;48.128;8.320;2022-12-10T02:30:14;34.03;;;18.57;;
12846;SDS011;6492;48.128;8.320;2022-12-10T02:34:16;35.27;;;17.87;;
12846;SDS011;6492;48.128;8.320;2022-12-10T02:38:20;40.23;;;20.27;;
12846;SDS011;6492;48.128;8.320;2022-12-10T02:42:25;35.30;;;19.37;;
12846;SDS011;6492;48.128;8.320;2022-12-10T02:46:32;37.00;;;19.10;;
12846;SDS011;6492;48.128;8.320;2022-12-10T02:50:35;39.03;;;19.97;;
12846;SDS011;6492;48.128;8.320;2022-12-10T02:54:39;33.07;;;19.30;;
12846;SDS011;6492;48.128;8.320;2022-12-10T02:58:44;34.07;;;19.77;;
12846;SDS011;6492;48.128;8.320;2022-12-10T03:07:22;34.27;;;17.17;;
12846;SDS011;6492;48.128;8.320;2022-12-10T03:11:30;33.10;;;18.53;;
12846;SDS011;6492;48.128;8.320;2022-12-10T03:15:33;33.60;;;16.73;;
12846;SDS011;6492;48.128;8.320;2022-12-10T03:19:39;36.20;;;17.37;;
12846;SDS011;6492;48.128;8.320;2022-12-10T03:23:43;35.27;;;18.00;;
12846;SDS011;6492;48.128;8.320;2022-12-10T03:27:48;32.47;;;17.90;;
12846;SDS011;6492;48.128;8.320;2022-12-10T03:31:54;35.53;;;18.20;;
12846;SDS011;6492;48.128;8.320;2022-12-10T03:35:58;34.67;;;16.43;;
12846;SDS011;6492;48.128;8.320;2022-12-10T03:40:01;30.67;;;17.03;;
12846;SDS011;6492;48.128;8.320;2022-12-10T03:44:04;29.30;;;15.90;;
12846;SDS011;6492;48.128;8.320;2022-12-10T03:48:06;34.60;;;18.67;;
12846;SDS011;6492;48.128;8.320;2022-12-10T03:52:09;29.63;;;17.50;;
12846;SDS011;6492;48.128;8.320;2022-12-10T03:56:12;34.77;;;17.77;;
12846;SDS011;6492;48.128;8.320;2022-12-10T04:00:13;31.87;;;14.83;;
12846;SDS011;6492;48.128;8.320;2022-12-10T04:04:16;40.33;;;17.47;;
12846;SDS011;6492;48.128;8.320;2022-12-10T04:08:19;29.53;;;16.67;;
12846;SDS011;6492;48.128;8.320;2022-12-10T04:12:21;27.30;;;14.43;;
12846;SDS011;6492;48.128;8.320;2022-12-10T04:16:23;31.07;;;15.77;;
12846;SDS011;6492;48.128;8.320;2022-12-10T04:20:28;25.23;;;14.40;;
12846;SDS011;6492;48.128;8.320;2022-12-10T04:25:03;30.50;;;14.70;;
12846;SDS011;6492;48.128;8.320;2022-12-10T04:29:23;29.00;;;15.27;;
12846;SDS011;6492;48.128;8.320;2022-12-10T04:33:26;28.63;;;14.87;;
12846;SDS011;6492;48.128;8.320;2022-12-10T04:37:27;29.80;;;14.93;;
12846;SDS011;6492;48.128;8.320;2022-12-10T04:41:31;27.03;;;14.00;;
12846;SDS011;6492;48.128;8.320;2022-12-10T04:45:33;25.63;;;15.43;;
12846;SDS011;6492;48.128;8.320;2022-12-10T04:49:35;29.87;;;14.83;;
12846;SDS011;6492;48.128;8.320;2022-12-10T04:53:37;26.70;;;15.50;;
12846;SDS011;6492;48.128;8.320;2022-12-10T04:57:41;27.73;;;13.67;;
12846;SDS011;6492;48.128;8.320;2022-12-10T05:01:42;25.63;;;13.03;;
12846;SDS011;6492;48.128;8.320;2022-12-10T05:05:44;25.33;;;13.63;;
12846;SDS011;6492;48.128;8.320;2022-12-10T05:09:46;27.43;;;15.40;;
12846;SDS011;6492;48.128;8.320;2022-12-10T05:13:50;28.17;;;15.33;;
12846;SDS011;6492;48.128;8.320;2022-12-10T05:17:53;32.63;;;15.40;;
12846;SDS011;6492;48.128;8.320;2022-12-10T05:21:54;23.03;;;13.77;;
12846;SDS011;6492;48.128;8.320;2022-12-10T05:26:15;22.77;;;12.47;;
12846;SDS011;6492;48.128;8.320;2022-12-10T05:30:19;23.83;;;12.67;;
12846;SDS011;6492;48.128;8.320;2022-12-10T05:34:21;22.20;;;13.17;;
12846;SDS011;6492;48.128;8.320;2022-12-10T05:38:23;19.97;;;11.73;;
12846;SDS011;6492;48.128;8.320;2022-12-10T05:42:26;24.57;;;12.87;;
12846;SDS011;6492;48.128;8.320;2022-12-10T05:46:30;23.73;;;14.37;;
12846;SDS011;6492;48.128;8.320;2022-12-10T05:50:33;23.03;;;13.30;;
12846;SDS011;6492;48.128;8.320;2022-12-10T05:54:42;22.83;;;13.43;;
12846;SDS011;6492;48.128;8.320;2022-12-10T05:58:45;23.73;;;12.73;;
12846;SDS011;6492;48.128;8.320;2022-12-10T06:02:49;20.13;;;12.10;;
12846;SDS011;6492;48.128;8.320;2022-12-10T06:06:51;23.70;;;12.30;;
12846;SDS011;6492;48.128;8.320;2022-12-10T06:10:52;20.67;;;11.73;;
12846;SDS011;6492;48.128;8.320;2022-12-10T06:14:56;21.50;;;13.47;;
12846;SDS011;6492;48.128;8.320;2022-12-10T06:18:59;23.10;;;13.07;;
12846;SDS011;6492;48.128;8.320;2022-12-10T06:23:01;24.70;;;13.17;;
12846;SDS011;6492;48.128;8.320;2022-12-10T06:27:02;21.93;;;12.23;;
12846;SDS011;6492;48.128;8.320;2022-12-10T06:31:05;22.23;;;12.87;;
12846;SDS011;6492;48.128;8.320;2022-12-10T06:35:08;18.47;;;11.13;;
12846;SDS011;6492;48.128;8.320;2022-12-10T06:39:11;20.33;;;11.87;;
12846;SDS011;6492;48.128;8.320;2022-12-10T06:43:12;18.30;;;11.40;;
12846;SDS011;6492;48.128;8.320;2022-12-10T06:47:15;19.93;;;12.23;;
12846;SDS011;6492;48.128;8.320;2022-12-10T06:51:18;18.70;;;12.13;;
12846;SDS011;6492;48.128;8.320;2022-12-10T06:55:20;19.97;;;11.97;;
12846;SDS011;6492;48.128;8.320;2022-12-10T06:59:22;17.90;;;11.30;;
12846;SDS011;6492;48.128;8.320;2022-12-10T07:03:24;17.37;;;10.07;;
12846;SDS011;6492;48.128;8.320;2022-12-10T07:07:28;15.00;;;9.70;;
12846;SDS011;6492;48.128;8.320;2022-12-10T07:11:29;18.10;;;10.37;;
12846;SDS011;6492;48.128;8.320;2022-12-10T07:15:31;17.23;;;10.23;;
12846;SDS011;6492;48.128;8.320;2022-12-10T07:19:33;16.10;;;10.60;;
12846;SDS011;6492;48.128;8.320;2022-12-10T07:23:36;14.90;;;9.93;;
12846;SDS011;6492;48.128;8.320;2022-12-10T07:27:38;17.93;;;10.70;;
12846;SDS011;6492;48.128;8.320;2022-12-10T07:31:40;53.63;;;30.30;;
12846;SDS011;6492;48.128;8.320;2022-12-10T07:35:54;32.13;;;20.70;;
12846;SDS011;6492;48.128;8.320;2022-12-10T07:39:57;16.07;;;11.20;;
12846;SDS011;6492;48.128;8.320;2022-12-10T07:43:59;28.83;;;19.83;;
12846;SDS011;6492;48.128;8.320;2022-12-10T07:48:01;17.60;;;12.13;;
12846;SDS011;6492;48.128;8.320;2022-12-10T07:52:03;17.93;;;11.23;;
12846;SDS011;6492;48.128;8.320;2022-12-10T07:56:07;17.90;;;10.47;;
12846;SDS011;6492;48.128;8.320;2022-12-10T08:00:09;15.90;;;10.60;;
12846;SDS011;6492;48.128;8.320;2022-12-10T08:04:12;18.67;;;10.77;;
12846;SDS011;6492;48.128;8.320;2022-12-10T08:08:13;16.37;;;10.93;;
12846;SDS011;6492;48.128;8.320;2022-12-10T08:12:18;16.53;;;10.83;;
12846;SDS011;6492;48.128;8.320;2022-12-10T08:16:20;18.30;;;11.23;;
12846;SDS011;6492;48.128;8.320;2022-12-10T08:20:26;17.80;;;11.40;;
12846;SDS011;6492;48.128;8.320;2022-12-10T08:24:38;14.17;;;10.10;;
12846;SDS011;6492;48.128;8.320;2022-12-10T08:28:41;20.70;;;11.23;;
12846;SDS011;6492;48.128;8.320;2022-12-10T08:32:43;20.77;;;12.67;;
12846;SDS011;6492;48.128;8.320;2022-12-10T08:36:46;20.00;;;13.07;;
12846;SDS011;6492;48.128;8.320;2022-12-10T08:40:48;21.07;;;13.23;;
12846;SDS011;6492;48.128;8.320;2022-12-10T08:44:51;16.17;;;11.10;;
12846;SDS011;6492;48.128;8.320;2022-12-10T08:48:52;17.37;;;11.03;;
12846;SDS011;6492;48.128;8.320;2022-12-10T08:53:04;18.43;;;13.07;;
12846;SDS011;6492;48.128;8.320;2022-12-10T08:57:06;30.07;;;17.40;;
12846;SDS011;6492;48.128;8.320;2022-12-10T09:01:11;25.80;;;14.70;;
12846;SDS011;6492;48.128;8.320;2022-12-10T09:05:14;20.57;;;13.60;;
12846;SDS011;6492;48.128;8.320;2022-12-10T09:09:16;20.60;;;13.37;;
12846;SDS011;6492;48.128;8.320;2022-12-10T09:13:17;24.70;;;14.83;;
12846;SDS011;6492;48.128;8.320;2022-12-10T09:17:20;18.30;;;13.07;;
12846;SDS011;6492;48.128;8.320;2022-12-10T09:21:22;21.97;;;14.60;;
12846;SDS011;6492;48.128;8.320;2022-12-10T09:29:46;24.77;;;14.47;;
12846;SDS011;6492;48.128;8.320;2022-12-10T09:33:50;17.00;;;11.03;;
12846;SDS011;6492;48.128;8.320;2022-12-10T09:37:54;18.83;;;12.43;;
12846;SDS011;6492;48.128;8.320;2022-12-10T09:42:01;28.27;;;15.83;;
12846;SDS011;6492;48.128;8.320;2022-12-10T09:46:18;21.30;;;14.60;;
12846;SDS011;6492;48.128;8.320;2022-12-10T09:50:28;22.07;;;14.93;;
12846;SDS011;6492;48.128;8.320;2022-12-10T10:03:16;22.53;;;13.50;;
12846;SDS011;6492;48.128;8.320;2022-12-10T10:07:21;23.93;;;14.07;;
12846;SDS011;6492;48.128;8.320;2022-12-10T10:11:27;29.03;;;17.57;;
12846;SDS011;6492;48.128;8.320;2022-12-10T10:15:32;47.30;;;36.03;;
12846;SDS011;6492;48.128;8.320;2022-12-10T10:19:34;26.70;;;16.47;;
12846;SDS011;6492;48.128;8.320;2022-12-10T10:23:41;20.10;;;13.37;;
12846;SDS011;6492;48.128;8.320;2022-12-10T10:27:45;20.17;;;12.57;;
12846;SDS011;6492;48.128;8.320;2022-12-10T10:32:10;17.93;;;12.07;;
12846;SDS011;6492;48.128;8.320;2022-12-10T10:36:14;19.37;;;12.60;;
12846;SDS011;6492;48.128;8.320;2022-12-10T10:40:22;18.53;;;11.43;;
12846;SDS011;6492;48.128;8.320;2022-12-10T10:44:27;16.37;;;11.57;;
12846;SDS011;6492;48.128;8.320;2022-12-10T10:48:34;18.73;;;11.00;;
12846;SDS011;6492;48.128;8.320;2022-12-10T10:52:37;16.97;;;12.00;;
12846;SDS011;6492;48.128;8.320;2022-12-10T10:56:43;16.37;;;10.80;;
12846;SDS011;6492;48.128;8.320;2022-12-10T11:00:52;13.47;;;9.63;;
12846;SDS011;6492;48.128;8.320;2022-12-10T11:09:05;13.47;;;9.10;;
12846;SDS011;6492;48.128;8.320;2022-12-10T11:13:18;17.63;;;11.37;;
12846;SDS011;6492;48.128;8.320;2022-12-10T11:17:28;13.47;;;9.30;;
12846;SDS011;6492;48.128;8.320;2022-12-10T11:21:32;14.07;;;9.83;;
12846;SDS011;6492;48.128;8.320;2022-12-10T11:25:41;13.50;;;8.97;;
12846;SDS011;6492;48.128;8.320;2022-12-10T11:29:59;13.07;;;8.67;;
12846;SDS011;6492;48.128;8.320;2022-12-10T11:34:07;14.27;;;8.97;;
12846;SDS011;6492;48.128;8.320;2022-12-10T11:38:21;13.10;;;9.83;;
12846;SDS011;6492;48.128;8.320;2022-12-10T11:42:27;13.03;;;10.23;;
12846;SDS011;6492;48.128;8.320;2022-12-10T11:46:49;14.77;;;10.00;;
12846;SDS011;6492;48.128;8.320;2022-12-10T11:51:04;36.10;;;18.73;;
12846;SDS011;6492;48.128;8.320;2022-12-10T11:59:40;12.13;;;8.60;;
12846;SDS011;6492;48.128;8.320;2022-12-10T12:03:54;47.33;;;21.87;;
12846;SDS011;6492;48.128;8.320;2022-12-10T12:08:07;16.07;;;11.33;;
12846;SDS011;6492;48.128;8.320;2022-12-10T12:12:19;12.97;;;9.03;;
12846;SDS011;6492;48.128;8.320;2022-12-10T12:16:30;16.23;;;10.23;;
12846;SDS011;6492;48.128;8.320;2022-12-10T12:25:00;11.80;;;8.40;;
12846;SDS011;6492;48.128;8.320;2022-12-10T12:29:10;9.57;;;7.47;;
12846;SDS011;6492;48.128;8.320;2022-12-10T12:33:18;10.37;;;7.40;;
12846;SDS011;6492;48.128;8.320;2022-12-10T12:37:32;11.00;;;8.37;;
12846;SDS011;6492;48.128;8.320;2022-12-10T12:41:40;14.27;;;9.90;;
12846;SDS011;6492;48.128;8.320;2022-12-10T12:45:46;10.33;;;6.73;;
12846;SDS011;6492;48.128;8.320;2022-12-10T12:49:59;10.63;;;6.63;;
12846;SDS011;6492;48.128;8.320;2022-12-10T12:54:14;12.33;;;9.30;;
12846;SDS011;6492;48.128;8.320;2022-12-10T12:58:19;9.30;;;7.03;;
12846;SDS011;6492;48.128;8.320;2022-12-10T13:02:30;12.33;;;8.00;;
12846;SDS011;6492;48.128;8.320;2022-12-10T13:11:33;11.93;;;8.77;;
12846;SDS011;6492;48.128;8.320;2022-12-10T13:15:36;11.90;;;9.20;;
12846;SDS011;6492;48.128;8.320;2022-12-10T13:19:42;13.97;;;10.20;;
12846;SDS011;6492;48.128;8.320;2022-12-10T13:23:47;26.70;;;17.87;;
12846;SDS011;6492;48.128;8.320;2022-12-10T13:27:56;17.03;;;11.67;;
12846;SDS011;6492;48.128;8.320;2022-12-10T13:32:17;15.07;;;9.87;;
12846;SDS011;6492;48.128;8.320;2022-12-10T13:36:21;11.67;;;8.27;;
12846;SDS011;6492;48.128;8.320;2022-12-10T13:40:36;13.27;;;9.63;;
12846;SDS011;6492;48.128;8.320;2022-12-10T13:45:01;14.37;;;9.03;;
12846;SDS011;6492;48.128;8.320;2022-12-10T13:49:12;14.50;;;9.80;;
12846;SDS011;6492;48.128;8.320;2022-12-10T13:53:21;14.47;;;8.80;;
12846;SDS011;6492;48.128;8.320;2022-12-10T13:57:38;12.13;;;8.87;;
12846;SDS011;6492;48.128;8.320;2022-12-10T14:02:36;10.97;;;7.93;;
12846;SDS011;6492;48.128;8.320;2022-12-10T14:06:51;13.00;;;9.60;;
12846;SDS011;6492;48.128;8.320;2022-12-10T14:10:53;14.20;;;10.10;;
12846;SDS011;6492;48.128;8.320;2022-12-10T14:14:58;13.50;;;9.20;;
12846;SDS011;6492;48.128;8.320;2022-12-10T14:19:04;13.87;;;9.30;;
12846;SDS011;6492;48.128;8.320;2022-12-10T14:23:19;12.97;;;9.10;;
12846;SDS011;6492;48.128;8.320;2022-12-10T14:27:38;12.93;;;9.43;;
12846;SDS011;6492;48.128;8.320;2022-12-10T14:31:42;28.63;;;17.00;;
12846;SDS011;6492;48.128;8.320;2022-12-10T14:40:19;13.27;;;8.50;;
12846;SDS011;6492;48.128;8.320;2022-12-10T14:44:26;34.53;;;19.57;;
12846;SDS011;6492;48.128;8.320;2022-12-10T14:48:28;15.43;;;9.33;;
12846;SDS011;6492;48.128;8.320;2022-12-10T14:52:33;10.17;;;7.40;;
12846;SDS011;6492;48.128;8.320;2022-12-10T14:56:41;34.90;;;18.60;;
12846;SDS011;6492;48.128;8.320;2022-12-10T15:00:46;13.53;;;9.33;;
12846;SDS011;6492;48.128;8.320;2022-12-10T15:04:49;10.90;;;7.00;;
12846;SDS011;6492;48.128;8.320;2022-12-10T15:08:55;9.43;;;6.17;;
12846;SDS011;6492;48.128;8.320;2022-12-10T15:12:59;8.67;;;6.27;;
12846;SDS011;6492;48.128;8.320;2022-12-10T15:21:40;10.17;;;6.43;;
12846;SDS011;6492;48.128;8.320;2022-12-10T15:25:46;10.07;;;5.50;;
12846;SDS011;6492;48.128;8.320;2022-12-10T15:29:53;9.53;;;5.90;;
12846;SDS011;6492;48.128;8.320;2022-12-10T15:33:57;12.63;;;7.87;;
12846;SDS011;6492;48.128;8.320;2022-12-10T15:38:04;10.13;;;6.90;;
12846;SDS011;6492;48.128;8.320;2022-12-10T15:46:46;9.00;;;6.03;;
12846;SDS011;6492;48.128;8.320;2022-12-10T15:51:00;7.93;;;5.67;;
12846;SDS011;6492;48.128;8.320;2022-12-10T15:55:02;9.27;;;6.40;;
12846;SDS011;6492;48.128;8.320;2022-12-10T15:59:07;9.47;;;5.13;;
12846;SDS011;6492;48.128;8.320;2022-12-10T16:03:28;8.73;;;6.27;;
12846;SDS011;6492;48.128;8.320;2022-12-10T16:07:30;8.03;;;5.53;;
12846;SDS011;6492;48.128;8.320;2022-12-10T16:11:47;6.77;;;4.93;;
12846;SDS011;6492;48.128;8.320;2022-12-10T16:15:51;4.93;;;4.00;;
12846;SDS011;6492;48.128;8.320;2022-12-10T16:19:56;10.23;;;6.67;;
12846;SDS011;6492;48.128;8.320;2022-12-10T16:23:59;7.50;;;5.30;;
12846;SDS011;6492;48.128;8.320;2022-12-10T16:28:01;7.10;;;5.20;;
12846;SDS011;6492;48.128;8.320;2022-12-10T16:32:05;9.13;;;5.87;;
12846;SDS011;6492;48.128;8.320;2022-12-10T16:36:16;8.87;;;5.93;;
12846;SDS011;6492;48.128;8.320;2022-12-10T16:40:18;10.43;;;7.20;;
12846;SDS011;6492;48.128;8.320;2022-12-10T16:44:22;8.23;;;5.80;;
12846;SDS011;6492;48.128;8.320;2022-12-10T16:48:33;9.63;;;5.80;;
12846;SDS011;6492;48.128;8.320;2022-12-10T16:52:35;7.13;;;5.30;;
12846;SDS011;6492;48.128;8.320;2022-12-10T16:56:37;7.67;;;5.60;;
12846;SDS011;6492;48.128;8.320;2022-12-10T17:00:39;8.27;;;6.10;;
12846;SDS011;6492;48.128;8.320;2022-12-10T17:04:44;10.33;;;7.13;;
12846;SDS011;6492;48.128;8.320;2022-12-10T17:08:46;9.67;;;7.20;;
12846;SDS011;6492;48.128;8.320;2022-12-10T17:12:48;9.67;;;7.27;;
12846;SDS011;6492;48.128;8.320;2022-12-10T17:17:01;9.97;;;6.67;;
12846;SDS011;6492;48.128;8.320;2022-12-10T17:21:05;12.53;;;8.43;;
12846;SDS011;6492;48.128;8.320;2022-12-10T17:25:07;11.80;;;7.57;;
12846;SDS011;6492;48.128;8.320;2022-12-10T17:29:11;8.90;;;6.83;;
12846;SDS011;6492;48.128;8.320;2022-12-10T17:33:17;9.83;;;6.80;;
12846;SDS011;6492;48.128;8.320;2022-12-10T17:37:22;11.73;;;7.23;;
12846;SDS011;6492;48.128;8.320;2022-12-10T17:41:25;11.70;;;7.90;;
12846;SDS011;6492;48.128;8.320;2022-12-10T17:45:27;12.17;;;8.33;;
12846;SDS011;6492;48.128;8.320;2022-12-10T17:53:43;12.40;;;8.70;;
12846;SDS011;6492;48.128;8.320;2022-12-10T17:57:45;12.93;;;8.53;;
12846;SDS011;6492;48.128;8.320;2022-12-10T18:01:47;10.57;;;7.77;;
12846;SDS011;6492;48.128;8.320;2022-12-10T18:05:49;10.67;;;7.80;;
12846;SDS011;6492;48.128;8.320;2022-12-10T18:09:52;12.83;;;8.63;;
12846;SDS011;6492;48.128;8.320;2022-12-10T18:13:55;11.77;;;7.60;;
12846;SDS011;6492;48.128;8.320;2022-12-10T18:17:57;12.50;;;8.83;;
12846;SDS011;6492;48.128;8.320;2022-12-10T18:22:01;13.77;;;8.83;;
12846;SDS011;6492;48.128;8.320;2022-12-10T18:26:07;15.77;;;9.87;;
12846;SDS011;6492;48.128;8.320;2022-12-10T18:30:24;13.03;;;8.73;;
12846;SDS011;6492;48.128;8.320;2022-12-10T18:34:26;14.07;;;8.63;;
12846;SDS011;6492;48.128;8.320;2022-12-10T18:38:28;11.33;;;9.03;;
12846;SDS011;6492;48.128;8.320;2022-12-10T18:42:31;15.30;;;9.60;;
12846;SDS011;6492;48.128;8.320;2022-12-10T18:46:33;14.73;;;9.53;;
12846;SDS011;6492;48.128;8.320;2022-12-10T18:50:36;16.97;;;9.87;;
12846;SDS011;6492;48.128;8.320;2022-12-10T18:54:38;15.77;;;9.80;;
12846;SDS011;6492;48.128;8.320;2022-12-10T18:58:42;15.07;;;9.17;;
12846;SDS011;6492;48.128;8.320;2022-12-10T19:02:45;22.93;;;11.47;;
12846;SDS011;6492;48.128;8.320;2022-12-10T19:06:47;13.47;;;8.77;;
12846;SDS011;6492;48.128;8.320;2022-12-10T19:10:48;13.47;;;8.50;;
12846;SDS011;6492;48.128;8.320;2022-12-10T19:14:52;12.73;;;8.50;;
12846;SDS011;6492;48.128;8.320;2022-12-10T19:18:59;12.73;;;8.70;;
12846;SDS011;6492;48.128;8.320;2022-12-10T19:23:04;14.00;;;8.90;;
12846;SDS011;6492;48.128;8.320;2022-12-10T19:27:07;12.23;;;9.13;;
12846;SDS011;6492;48.128;8.320;2022-12-10T19:31:12;11.57;;;8.07;;
12846;SDS011;6492;48.128;8.320;2022-12-10T19:35:14;13.27;;;8.67;;
12846;SDS011;6492;48.128;8.320;2022-12-10T19:39:18;12.40;;;8.57;;
12846;SDS011;6492;48.128;8.320;2022-12-10T19:43:22;11.53;;;7.87;;
12846;SDS011;6492;48.128;8.320;2022-12-10T19:47:25;11.73;;;8.13;;
12846;SDS011;6492;48.128;8.320;2022-12-10T19:51:29;13.43;;;8.40;;
12846;SDS011;6492;48.128;8.320;2022-12-10T19:55:30;12.00;;;8.20;;
12846;SDS011;6492;48.128;8.320;2022-12-10T19:59:32;14.70;;;8.80;;
12846;SDS011;6492;48.128;8.320;2022-12-10T20:03:35;14.03;;;8.87;;
12846;SDS011;6492;48.128;8.320;2022-12-10T20:07:38;12.20;;;8.03;;
12846;SDS011;6492;48.128;8.320;2022-12-10T20:11:41;13.97;;;8.13;;
12846;SDS011;6492;48.128;8.320;2022-12-10T20:15:43;14.60;;;9.10;;
12846;SDS011;6492;48.128;8.320;2022-12-10T20:19:49;12.53;;;7.80;;
12846;SDS011;6492;48.128;8.320;2022-12-10T20:23:51;15.27;;;8.47;;
12846;SDS011;6492;48.128;8.320;2022-12-10T20:27:53;11.60;;;7.67;;
12846;SDS011;6492;48.128;8.320;2022-12-10T20:31:55;11.87;;;7.87;;
12846;SDS011;6492;48.128;8.320;2022-12-10T20:35:59;11.17;;;7.43;;
12846;SDS011;6492;48.128;8.320;2022-12-10T20:44:34;33.37;;;15.10;;
12846;SDS011;6492;48.128;8.320;2022-12-10T20:48:36;30.17;;;14.93;;
12846;SDS011;6492;48.128;8.320;2022-12-10T20:52:39;27.23;;;15.10;;
12846;SDS011;6492;48.128;8.320;2022-12-10T20:56:41;16.20;;;10.60;;
12846;SDS011;6492;48.128;8.320;2022-12-10T21:00:43;16.97;;;10.47;;
12846;SDS011;6492;48.128;8.320;2022-12-10T21:04:45;19.77;;;12.40;;
12846;SDS011;6492;48.128;8.320;2022-12-10T21:08:48;17.47;;;10.20;;
12846;SDS011;6492;48.128;8.320;2022-12-10T21:12:51;17.20;;;10.17;;
12846;SDS011;6492;48.128;8.320;2022-12-10T21:16:53;16.37;;;9.83;;
12846;SDS011;6492;48.128;8.320;2022-12-10T21:20:58;17.80;;;10.30;;
12846;SDS011;6492;48.128;8.320;2022-12-10T21:25:02;14.93;;;9.53;;
12846;SDS011;6492;48.128;8.320;2022-12-10T21:29:04;17.27;;;9.73;;
12846;SDS011;6492;48.128;8.320;2022-12-10T21:33:06;15.43;;;8.67;;
12846;SDS011;6492;48.128;8.320;2022-12-10T21:42:04;13.67;;;8.50;;
12846;SDS011;6492;48.128;8.320;2022-12-10T21:50:57;13.13;;;8.37;;
12846;SDS011;6492;48.128;8.320;2022-12-10T21:55:00;17.03;;;10.37;;
12846;SDS011;6492;48.128;8.320;2022-12-10T21:59:03;15.07;;;9.00;;
12846;SDS011;6492;48.128;8.320;2022-12-10T22:27:21;22.43;;;13.03;;
12846;SDS011;6492;48.128;8.320;2022-12-10T22:31:22;22.77;;;13.33;;
12846;SDS011;6492;48.128;8.320;2022-12-10T22:35:24;22.53;;;13.87;;
12846;SDS011;6492;48.128;8.320;2022-12-10T22:39:26;21.27;;;12.57;;
12846;SDS011;6492;48.128;8.320;2022-12-10T22:43:29;19.87;;;12.13;;
12846;SDS011;6492;48.128;8.320;2022-12-10T22:47:32;19.60;;;12.00;;
12846;SDS011;6492;48.128;8.320;2022-12-10T22:56:10;20.93;;;10.70;;
12846;SDS011;6492;48.128;8.320;2022-12-10T23:00:17;15.43;;;9.67;;
12846;SDS011;6492;48.128;8.320;2022-12-10T23:08:32;15.50;;;9.83;;
12846;SDS011;6492;48.128;8.320;2022-12-10T23:12:34;15.87;;;9.20;;
12846;SDS011;6492;48.128;8.320;2022-12-10T23:16:55;14.90;;;9.20;;
12846;SDS011;6492;48.128;8.320;2022-12-10T23:20:57;15.87;;;9.37;;
12846;SDS011;6492;48.128;8.320;2022-12-10T23:25:01;12.97;;;8.33;;
12846;SDS011;6492;48.128;8.320;2022-12-10T23:29:05;15.73;;;8.80;;
12846;SDS011;6492;48.128;8.320;2022-12-10T23:33:08;13.80;;;8.43;;
12846;SDS011;6492;48.128;8.320;2022-12-10T23:37:12;15.23;;;9.43;;
12846;SDS011;6492;48.128;8.320;2022-12-10T23:41:14;17.70;;;10.30;;
12846;SDS011;6492;48.128;8.320;2022-12-10T23:45:16;15.40;;;8.97;;
12846;SDS011;6492;48.128;8.320;2022-12-10T23:49:20;13.60;;;8.23;;
12846;SDS011;6492;48.128;8.320;2022-12-10T23:53:22;15.63;;;8.70;;
12846;SDS011;6492;48.128;8.320;2022-12-10T23:57:24;15.37;;;8.77;;
